createdAt,value
2022-10-11T04:30:38.187Z,86.57
2022-10-11T04:33:06.321Z,86.73
2022-10-11T04:52:25.905Z,86.02
2022-10-11T04:54:54.619Z,86.04
2022-10-11T04:57:24.229Z,86.31
2022-10-11T04:59:52.349Z,86.49
2022-10-11T05:16:18.325Z,85.37
2022-10-11T07:02:36.667Z,78.95
2022-10-11T07:38:47.875Z,72.80
2022-10-11T07:41:16.738Z,72.59
2022-10-11T07:43:46.778Z,72.66
2022-10-11T07:46:16.519Z,72.16
2022-10-11T07:48:44.554Z,71.77
2022-10-11T07:51:20.915Z,71.78
2022-10-11T07:53:54.401Z,70.82
2022-10-11T07:56:27.525Z,70.59
2022-10-11T07:59:00.314Z,70.40
2022-10-11T08:01:32.559Z,70.48
2022-10-11T08:04:28.040Z,70.25
2022-10-11T08:07:21.044Z,69.50
2022-10-11T08:09:50.411Z,69.21
2022-10-11T08:12:33.017Z,68.22
2022-10-11T08:15:02.978Z,67.76
2022-10-11T08:18:24.189Z,66.94
2022-10-11T08:21:00.174Z,68.09
2022-10-11T08:23:28.553Z,67.52
2022-10-11T08:25:58.298Z,67.48
2022-10-11T08:28:26.582Z,67.09
2022-10-11T08:31:11.235Z,67.35
2022-10-11T08:47:44.772Z,63.76
2022-10-11T08:50:22.698Z,62.76
2022-10-11T08:53:08.300Z,62.53
2022-10-11T08:55:59.506Z,62.33
2022-10-11T08:59:15.785Z,61.96
2022-10-11T09:01:59.209Z,60.72
2022-10-11T09:04:27.914Z,60.91
2022-10-11T09:07:46.417Z,60.70
2022-10-11T09:10:48.836Z,60.67
2022-10-11T09:17:41.418Z,60.27
2022-10-11T09:20:38.276Z,59.17
2022-10-11T09:23:38.047Z,58.85
2022-10-11T09:26:30.922Z,58.68
2022-10-11T09:29:58.330Z,58.03
2022-10-11T09:32:36.158Z,57.65
2022-10-11T09:35:33.259Z,57.68
2022-10-11T09:39:07.887Z,57.56
2022-10-11T09:41:48.456Z,57.07
2022-10-11T09:44:47.264Z,54.46
2022-10-11T09:47:28.287Z,55.06
2022-10-11T09:50:04.516Z,55.26
2022-10-11T09:52:33.914Z,55.91
2022-10-11T09:55:03.104Z,54.38
2022-10-11T09:57:56.029Z,54.02
2022-10-11T10:00:57.399Z,54.10
2022-10-11T10:03:32.558Z,53.94
2022-10-11T10:06:17.615Z,53.27
2022-10-11T10:08:47.805Z,51.63
2022-10-11T10:11:18.353Z,53.33
2022-10-11T10:13:56.498Z,52.17
2022-10-11T10:16:32.105Z,51.57
2022-10-11T10:19:17.661Z,50.79
2022-10-11T10:21:53.264Z,49.50
2022-10-11T10:24:38.760Z,48.60
2022-10-11T10:27:26.900Z,49.74
2022-10-11T10:30:13.838Z,49.85
2022-10-11T10:33:09.241Z,48.31
2022-10-11T10:36:06.275Z,48.80
2022-10-11T10:38:52.380Z,49.34
2022-10-11T10:41:21.993Z,49.01
2022-10-11T10:43:59.459Z,47.90
2022-10-11T10:47:16.167Z,45.84
2022-10-11T10:50:07.420Z,45.27
2022-10-11T10:53:20.645Z,46.12
2022-10-11T10:55:59.591Z,45.95
2022-10-11T10:58:40.315Z,46.79
2022-10-11T11:01:32.352Z,46.35
2022-10-11T11:04:32.419Z,45.42
2022-10-11T11:07:43.991Z,46.07
2022-10-11T11:11:14.169Z,45.85
2022-10-11T11:14:36.463Z,44.75
2022-10-11T11:17:23.708Z,45.52
2022-10-11T11:20:43.908Z,43.86
2022-10-11T11:23:46.180Z,45.41
2022-10-11T11:26:44.411Z,43.81
2022-10-11T11:29:55.767Z,44.87
2022-10-11T11:33:12.360Z,44.13
2022-10-11T11:35:53.690Z,42.75
2022-10-11T11:38:51.665Z,43.64
2022-10-11T11:41:28.597Z,43.22
2022-10-11T11:44:05.967Z,41.90
2022-10-11T11:46:42.814Z,42.19
2022-10-11T11:49:23.534Z,43.16
2022-10-11T11:51:53.183Z,42.72
2022-10-11T11:54:44.660Z,43.39
2022-10-11T11:57:36.278Z,41.98
2022-10-11T12:00:13.948Z,41.58
2022-10-11T12:03:09.954Z,41.89
2022-10-11T12:05:39.284Z,42.50
2022-10-11T12:08:32.536Z,43.01
2022-10-11T12:11:02.608Z,42.86
2022-10-11T12:13:40.956Z,42.11
2022-10-11T12:16:16.132Z,42.36
2022-10-11T12:18:52.361Z,43.60
2022-10-11T12:21:35.103Z,42.94
2022-10-11T12:25:18.268Z,42.28
2022-10-11T12:28:00.285Z,42.07
2022-10-11T12:30:47.256Z,42.42
2022-10-11T12:34:08.639Z,41.82
2022-10-11T12:36:42.127Z,40.48
2022-10-11T12:39:19.837Z,41.61
2022-10-11T12:41:49.005Z,41.63
2022-10-11T12:44:29.000Z,41.44
2022-10-11T12:47:00.126Z,40.92
2022-10-11T12:49:43.750Z,40.78
2022-10-11T12:52:18.179Z,41.55
2022-10-11T12:55:32.549Z,41.95
2022-10-11T12:58:49.137Z,42.02
2022-10-11T13:01:25.055Z,42.73
2022-10-11T13:04:12.492Z,41.84
2022-10-11T13:07:06.806Z,42.53
2022-10-11T13:09:45.316Z,42.18
2022-10-11T13:12:27.475Z,43.13
2022-10-11T13:15:08.135Z,42.97
2022-10-11T13:18:15.802Z,43.06
2022-10-11T13:21:41.469Z,43.04
2022-10-11T13:25:09.813Z,43.01
2022-10-11T16:35:21.116Z,56.95
2022-10-11T16:37:48.401Z,59.97
2022-10-11T16:40:17.224Z,60.46
2022-10-11T16:42:46.206Z,61.17
2022-10-11T16:45:15.979Z,61.66
2022-10-11T16:47:43.953Z,59.42
2022-10-11T16:50:12.077Z,59.06
2022-10-11T16:52:39.234Z,59.25
2022-10-11T16:55:07.108Z,59.87
2022-10-11T16:57:37.272Z,59.66
2022-10-11T17:00:08.168Z,59.88
2022-10-11T17:02:42.759Z,60.49
2022-10-11T17:05:29.725Z,61.24
2022-10-11T17:07:58.317Z,61.97
2022-10-11T17:10:38.653Z,62.87
2022-10-11T17:13:07.014Z,63.50
2022-10-11T17:15:36.478Z,63.89
2022-10-11T17:18:07.056Z,63.24
2022-10-11T17:20:46.111Z,63.88
2022-10-11T17:23:13.338Z,63.59
2022-10-11T17:25:47.861Z,64.42
2022-10-11T17:28:17.878Z,64.53
2022-10-11T17:30:57.380Z,64.27
2022-10-11T17:33:26.285Z,64.55
2022-10-11T17:35:57.815Z,64.63
2022-10-11T17:38:27.101Z,65.60
2022-10-11T17:41:05.797Z,65.63
2022-10-11T17:43:36.729Z,67.29
2022-10-11T17:46:06.771Z,66.83
2022-10-11T17:48:38.864Z,66.49
2022-10-11T17:51:10.214Z,67.16
2022-10-11T17:53:39.859Z,66.34
2022-10-11T17:56:15.621Z,66.93
2022-10-11T17:58:43.711Z,67.28
2022-10-11T18:01:15.848Z,67.39
2022-10-11T18:03:49.700Z,67.59
2022-10-11T18:06:17.211Z,67.72
2022-10-11T18:08:44.799Z,68.70
2022-10-11T18:11:19.085Z,68.55
2022-10-11T18:13:55.506Z,68.14
2022-10-11T18:16:27.546Z,68.25
2022-10-11T18:19:05.428Z,68.10
2022-10-11T18:21:35.154Z,68.32
2022-10-11T18:24:07.339Z,68.54
2022-10-11T18:26:42.514Z,68.83
2022-10-11T18:29:11.928Z,69.74
2022-10-11T18:31:40.529Z,69.46
2022-10-11T18:34:10.232Z,69.40
2022-10-11T18:36:38.346Z,68.95
2022-10-11T18:39:21.333Z,69.21
2022-10-11T18:41:52.753Z,69.48
2022-10-11T18:44:19.942Z,68.55
2022-10-11T18:46:47.919Z,68.83
2022-10-11T18:49:15.240Z,67.89
2022-10-11T18:51:44.769Z,67.95
2022-10-11T18:54:16.719Z,68.11
2022-10-11T18:56:47.604Z,68.48
2022-10-11T18:59:17.687Z,68.62
2022-10-11T19:01:47.482Z,69.13
2022-10-11T19:04:15.482Z,69.66
2022-10-11T19:06:54.009Z,69.52
2022-10-11T19:09:47.791Z,69.00
2022-10-11T19:12:48.524Z,69.10
2022-10-11T19:15:16.278Z,69.11
2022-10-11T19:17:45.870Z,70.82
2022-10-11T19:20:14.285Z,69.19
2022-10-11T19:22:41.474Z,68.74
2022-10-11T19:25:18.967Z,69.02
2022-10-11T19:27:59.010Z,69.22
2022-10-11T19:30:26.629Z,70.39
2022-10-11T19:32:55.226Z,70.21
2022-10-11T19:35:22.501Z,70.41
2022-10-11T19:37:49.847Z,70.92
2022-10-11T19:40:17.104Z,70.77
2022-10-11T19:42:44.383Z,70.63
2022-10-11T19:45:11.684Z,70.57
2022-10-11T19:47:38.871Z,70.02
2022-10-11T19:50:07.055Z,70.02
2022-10-11T19:52:34.596Z,71.73
2022-10-11T19:55:02.091Z,70.35
2022-10-11T19:57:29.721Z,70.24
2022-10-11T20:00:00.133Z,69.64
2022-10-11T20:02:27.386Z,70.06
2022-10-11T20:04:54.696Z,69.85
2022-10-11T20:07:22.032Z,70.76
2022-10-11T20:09:49.222Z,71.12
2022-10-11T20:12:16.490Z,71.46
2022-10-11T20:14:49.933Z,71.60
2022-10-11T20:17:42.802Z,71.95
2022-10-11T20:20:10.393Z,71.79
2022-10-11T20:22:37.497Z,71.96
2022-10-11T20:25:11.876Z,73.13
2022-10-11T20:27:47.866Z,72.14
2022-10-11T20:30:15.387Z,72.22
2022-10-11T20:32:42.607Z,71.96
2022-10-11T20:35:09.954Z,71.92
2022-10-11T20:37:38.254Z,71.97
2022-10-11T20:40:07.764Z,72.03
2022-10-11T20:42:40.638Z,72.15
2022-10-11T20:45:08.269Z,72.73
2022-10-11T20:47:35.807Z,72.28
2022-10-11T20:50:03.821Z,72.74
2022-10-11T20:52:36.421Z,71.98
2022-10-11T20:55:03.782Z,72.98
2022-10-11T20:57:31.489Z,73.50
2022-10-11T21:00:04.570Z,73.56
2022-10-11T21:02:35.047Z,72.87
2022-10-11T21:05:07.753Z,72.90
2022-10-11T21:07:35.392Z,72.67
2022-10-11T21:10:08.801Z,72.03
2022-10-11T21:12:37.556Z,71.67
2022-10-11T21:15:05.561Z,71.31
2022-10-11T21:17:32.694Z,71.34
2022-10-11T21:20:05.535Z,71.52
2022-10-11T21:22:33.337Z,72.03
2022-10-11T21:25:00.884Z,71.95
2022-10-11T21:27:30.554Z,72.86
2022-10-11T21:29:59.185Z,74.52
2022-10-11T21:32:26.868Z,75.38
2022-10-11T21:34:54.024Z,75.35
2022-10-11T21:37:21.157Z,74.59
2022-10-11T21:39:48.400Z,74.35
2022-10-11T21:42:15.451Z,74.95
2022-10-11T21:44:43.208Z,75.08
2022-10-11T21:47:10.435Z,75.22
2022-10-11T21:49:40.490Z,76.03
2022-10-11T21:52:14.786Z,75.59
2022-10-11T21:54:42.145Z,75.43
2022-10-11T21:57:09.397Z,75.25
2022-10-11T21:59:36.583Z,76.08
2022-10-11T22:02:03.915Z,76.43
2022-10-11T22:04:31.099Z,76.40
2022-10-11T22:06:58.488Z,76.79
2022-10-11T22:09:27.896Z,76.31
2022-10-11T22:11:56.235Z,76.33
2022-10-11T22:14:24.401Z,77.24
2022-10-11T22:19:52.970Z,76.42
2022-10-11T22:22:21.754Z,75.97
2022-10-11T22:24:50.326Z,77.90
2022-10-11T22:27:18.971Z,78.41
2022-10-11T22:29:47.327Z,77.68
2022-10-11T22:32:15.778Z,76.57
2022-10-11T22:34:44.511Z,76.15
2022-10-11T22:37:13.000Z,76.28
2022-10-11T22:39:41.533Z,76.09
2022-10-11T22:42:10.113Z,75.79
2022-10-11T22:44:38.890Z,75.25
2022-10-11T22:47:07.317Z,75.43
2022-10-11T22:49:35.810Z,75.78
2022-10-11T22:52:04.418Z,76.43
2022-10-11T22:54:32.870Z,76.16
2022-10-11T22:57:01.362Z,76.01
2022-10-11T22:59:29.869Z,76.15
2022-10-11T23:01:58.664Z,75.12
2022-10-11T23:04:28.178Z,75.43
2022-10-11T23:06:57.281Z,75.48
2022-10-11T23:09:29.168Z,75.31
2022-10-11T23:11:58.275Z,76.43
2022-10-11T23:14:26.947Z,76.22
2022-10-11T23:16:55.553Z,76.35
2022-10-11T23:19:24.019Z,76.08
2022-10-11T23:21:52.453Z,76.18
2022-10-11T23:24:20.990Z,76.95
2022-10-11T23:26:49.440Z,77.87
2022-10-11T23:29:17.980Z,77.00
2022-10-11T23:31:48.442Z,77.19
2022-10-11T23:34:17.023Z,77.00
2022-10-11T23:36:45.586Z,77.41
2022-10-11T23:39:16.106Z,77.65
2022-10-11T23:41:44.625Z,77.32
2022-10-11T23:44:13.102Z,79.01
2022-10-11T23:46:41.846Z,78.67
2022-10-11T23:49:10.495Z,79.29
2022-10-11T23:51:39.478Z,79.51
2022-10-11T23:54:08.048Z,80.46
2022-10-11T23:56:36.577Z,79.26
2022-10-11T23:59:05.235Z,80.22
